Time;durP1;ratioP1;P1;durP2;ratioP2;P2;SDS_P1;SDS_P2;PMS_P1;PMS_P2;Temp;Humidity;BMP_temperature;BMP_pressure;BME280_temperature;BME280_humidity;BME280_pressure;Samples;Min_cycle;Max_cycle;Signal;HPM_P1;HPM_P2
2024/04/05 00:02:13;;;;;;;4.93;3.60;;;14.50;99.90;;;;;;5060171;28;20524;-73
2024/04/05 00:04:39;;;;;;;3.63;3.30;;;14.50;99.90;;;;;;5068607;28;20800;-73
2024/04/05 00:07:05;;;;;;;5.20;4.20;;;14.50;99.90;;;;;;5067647;28;20458;-73
2024/04/05 00:09:33;;;;;;;3.30;3.00;;;14.50;99.90;;;;;;5068416;28;20469;-73
2024/04/05 00:11:59;;;;;;;6.83;5.40;;;14.50;99.90;;;;;;5067825;28;20470;-74
2024/04/05 00:14:26;;;;;;;6.90;4.17;;;14.50;99.90;;;;;;5068293;28;20468;-74
2024/04/05 00:16:53;;;;;;;5.57;3.97;;;14.60;99.90;;;;;;5067720;28;20467;-74
2024/04/05 00:19:20;;;;;;;13.27;10.40;;;14.50;99.90;;;;;;5057127;28;20929;-74
2024/04/05 00:21:46;;;;;;;4.60;4.17;;;14.50;99.90;;;;;;5055118;28;20979;-74
2024/04/05 00:24:13;;;;;;;8.20;7.30;;;14.60;99.90;;;;;;5074707;28;20818;-74
2024/04/05 00:26:39;;;;;;;6.83;4.87;;;14.60;99.90;;;;;;5074792;28;20474;-74
2024/04/05 00:29:06;;;;;;;4.60;2.10;;;14.50;99.90;;;;;;5074424;28;20840;-74
2024/04/05 00:31:32;;;;;;;4.23;2.83;;;14.50;99.90;;;;;;5074597;28;20952;-74
2024/04/05 00:34:00;;;;;;;5.17;2.57;;;14.60;99.90;;;;;;5074374;28;20472;-74
2024/04/05 00:36:26;;;;;;;3.67;2.40;;;14.50;99.90;;;;;;5074856;28;20992;-74
2024/04/05 00:38:54;;;;;;;4.83;3.30;;;14.50;99.90;;;;;;5047765;28;20460;-74
2024/04/05 00:41:20;;;;;;;9.93;3.57;;;14.50;99.90;;;;;;5034477;28;20478;-74
2024/04/05 00:43:47;;;;;;;4.63;3.30;;;14.60;99.90;;;;;;5042931;28;21024;-74
2024/04/05 00:46:13;;;;;;;3.60;3.17;;;14.50;99.90;;;;;;5034176;28;20474;-74
2024/04/05 00:48:40;;;;;;;5.60;3.60;;;14.60;99.90;;;;;;5042918;28;20468;-74
2024/04/05 00:51:08;;;;;;;4.67;2.73;;;14.60;99.90;;;;;;5052775;28;20472;-74
2024/04/05 00:53:35;;;;;;;5.33;1.90;;;14.50;99.90;;;;;;5054292;28;21016;-73
2024/04/05 00:56:02;;;;;;;4.07;2.00;;;14.50;99.90;;;;;;5053918;28;21012;-74
2024/04/05 00:58:29;;;;;;;9.10;4.63;;;14.50;99.90;;;;;;5054123;28;20470;-74
2024/04/05 01:00:56;;;;;;;11.93;5.77;;;14.50;99.90;;;;;;5053711;28;20467;-74
2024/04/05 01:03:23;;;;;;;7.53;5.13;;;14.50;99.90;;;;;;5054182;28;20467;-74
2024/04/05 01:05:50;;;;;;;7.03;4.43;;;14.50;99.90;;;;;;5054188;28;20467;-74
2024/04/05 01:08:18;;;;;;;6.20;3.50;;;14.50;99.90;;;;;;5057004;28;20454;-74
2024/04/05 01:10:45;;;;;;;5.77;2.73;;;14.50;99.90;;;;;;5058610;28;20471;-73
2024/04/05 01:13:13;;;;;;;10.63;5.40;;;14.50;99.90;;;;;;5053507;28;20460;-74
2024/04/05 01:15:40;;;;;;;4.90;3.70;;;14.50;99.90;;;;;;5054107;28;20470;-73
2024/04/05 01:18:07;;;;;;;6.03;4.30;;;14.50;99.90;;;;;;5053653;28;20482;-74
2024/04/05 01:20:36;;;;;;;5.27;3.70;;;14.40;99.90;;;;;;5053747;28;20521;-73
2024/04/05 01:23:03;;;;;;;6.13;2.80;;;14.50;99.90;;;;;;5053412;28;20467;-74
2024/04/05 01:25:32;;;;;;;4.20;2.90;;;14.40;99.90;;;;;;5054128;28;20966;-74
2024/04/05 01:28:00;;;;;;;14.30;10.87;;;14.40;99.90;;;;;;5052234;28;20463;-74
2024/04/05 01:30:27;;;;;;;11.50;10.10;;;14.40;99.90;;;;;;5052209;28;20463;-73
2024/04/05 01:32:54;;;;;;;4.80;4.10;;;14.40;99.90;;;;;;5053613;28;20979;-74
2024/04/05 01:35:21;;;;;;;8.00;5.20;;;14.30;99.90;;;;;;5056638;28;20469;-74
2024/04/05 01:37:47;;;;;;;16.23;10.60;;;14.30;99.90;;;;;;5058498;28;20471;-74
2024/04/05 01:40:14;;;;;;;8.70;5.50;;;14.30;99.90;;;;;;5053143;28;20459;-74
2024/04/05 01:42:42;;;;;;;4.80;3.10;;;14.30;99.90;;;;;;5053465;28;20470;-73
2024/04/05 01:45:09;;;;;;;11.43;5.47;;;14.30;99.90;;;;;;5053229;28;20516;-73
2024/04/05 01:47:35;;;;;;;5.77;4.10;;;14.30;99.90;;;;;;5053350;28;20459;-74
2024/04/05 01:50:02;;;;;;;5.80;1.80;;;14.30;99.90;;;;;;5052850;28;20493;-73
2024/04/05 01:52:29;;;;;;;5.27;3.17;;;14.30;99.90;;;;;;5053282;28;20961;-72
2024/04/05 01:54:56;;;;;;;3.83;3.27;;;14.30;99.90;;;;;;5053383;28;20510;-74
2024/04/05 01:57:23;;;;;;;10.03;4.23;;;14.30;99.90;;;;;;5052948;28;20474;-74
2024/04/05 01:59:52;;;;;;;11.17;2.50;;;14.40;99.90;;;;;;5053373;28;20778;-74
2024/04/05 02:02:19;;;;;;;5.23;2.37;;;14.40;99.90;;;;;;5052648;28;20517;-74
2024/04/05 02:04:46;;;;;;;3.47;1.47;;;14.40;99.90;;;;;;5053161;28;20546;-74
2024/04/05 02:07:12;;;;;;;3.87;2.20;;;14.40;99.90;;;;;;5052249;28;20464;-74
2024/04/05 02:09:39;;;;;;;10.00;6.90;;;14.50;99.90;;;;;;5053025;28;20470;-74
2024/04/05 02:12:06;;;;;;;10.87;5.63;;;14.50;99.90;;;;;;5052537;28;20471;-74
2024/04/05 02:14:34;;;;;;;3.60;2.50;;;14.60;99.90;;;;;;5052896;28;20469;-74
2024/04/05 02:17:01;;;;;;;4.47;3.60;;;14.60;99.90;;;;;;5052320;28;20467;-73
2024/04/05 02:19:28;;;;;;;3.80;3.03;;;14.60;99.90;;;;;;5052930;28;20466;-75
2024/04/05 02:21:54;;;;;;;5.37;3.53;;;14.70;99.90;;;;;;5052660;28;20467;-74
2024/04/05 02:24:21;;;;;;;12.33;10.53;;;14.70;99.90;;;;;;5052342;28;20547;-74
2024/04/05 02:26:47;;;;;;;7.83;4.90;;;14.80;99.90;;;;;;5052677;28;20866;-73
2024/04/05 02:29:14;;;;;;;5.40;2.13;;;14.80;99.90;;;;;;5052087;28;20467;-72
2024/04/05 02:31:40;;;;;;;5.40;2.63;;;14.80;99.90;;;;;;5052689;28;20469;-73
2024/04/05 02:34:09;;;;;;;6.87;2.30;;;14.80;99.90;;;;;;5052129;28;20491;-73
2024/04/05 02:36:35;;;;;;;6.17;2.13;;;14.90;99.90;;;;;;5052404;28;20467;-73
2024/04/05 02:39:02;;;;;;;26.00;17.83;;;14.90;99.90;;;;;;5052184;28;20467;-74
2024/04/05 02:41:28;;;;;;;4.93;2.73;;;14.80;99.90;;;;;;5051920;28;20890;-73
2024/04/05 02:43:55;;;;;;;5.17;2.83;;;14.80;99.90;;;;;;5052641;28;20842;-74
2024/04/05 02:46:21;;;;;;;3.80;1.93;;;14.80;99.90;;;;;;5052147;28;20474;-74
2024/04/05 02:48:48;;;;;;;5.40;3.57;;;14.80;99.90;;;;;;5052350;28;20471;-73
2024/04/05 02:51:15;;;;;;;4.30;2.90;;;14.90;99.90;;;;;;5051815;28;20474;-74
2024/04/05 02:53:42;;;;;;;6.00;4.00;;;14.90;99.90;;;;;;5052430;28;20483;-74
2024/04/05 02:56:10;;;;;;;5.10;4.00;;;14.80;99.90;;;;;;5051779;28;20474;-74
2024/04/05 02:58:37;;;;;;;5.00;2.90;;;14.80;99.90;;;;;;5052148;28;20536;-73
2024/04/05 03:01:03;;;;;;;8.87;4.40;;;14.90;99.90;;;;;;5052172;28;20467;-74
2024/04/05 03:03:30;;;;;;;4.80;2.77;;;14.90;99.90;;;;;;5051716;28;20463;-73
2024/04/05 03:05:57;;;;;;;7.43;2.43;;;14.80;99.90;;;;;;5052354;28;20463;-74
2024/04/05 03:08:25;;;;;;;3.77;1.80;;;14.80;99.90;;;;;;5050522;28;20485;-74
2024/04/05 03:10:51;;;;;;;3.47;2.33;;;14.80;99.90;;;;;;5051368;28;20956;-73
2024/04/05 03:13:18;;;;;;;4.63;2.60;;;14.80;99.90;;;;;;5051629;28;20477;-73
2024/04/05 03:15:46;;;;;;;4.10;3.23;;;14.80;99.90;;;;;;5052124;28;20903;-73
2024/04/05 03:18:13;;;;;;;4.03;2.60;;;14.80;99.90;;;;;;5051481;28;20498;-75
2024/04/05 03:20:39;;;;;;;5.30;3.30;;;14.70;99.90;;;;;;5051796;28;20550;-74
2024/04/05 03:23:07;;;;;;;8.47;3.90;;;14.80;99.90;;;;;;5052305;28;20467;-75
2024/04/05 03:25:40;;;;;;;6.50;4.00;;;14.70;99.90;;;;;;5051850;28;20463;-76
2024/04/05 03:28:07;;;;;;;9.20;5.30;;;14.70;99.90;;;;;;5051838;28;20475;-73
2024/04/05 03:30:34;;;;;;;4.67;1.90;;;14.70;99.90;;;;;;5051819;28;20525;-75
2024/04/05 03:33:01;;;;;;;6.53;1.80;;;14.70;99.90;;;;;;5051987;28;20813;-73
2024/04/05 03:35:27;;;;;;;3.00;1.70;;;14.70;99.90;;;;;;5051390;28;20459;-73
2024/04/05 03:37:54;;;;;;;8.23;2.57;;;14.60;99.90;;;;;;5051761;28;20470;-74
2024/04/05 03:40:22;;;;;;;6.13;2.70;;;14.60;99.90;;;;;;5051664;28;20546;-73
2024/04/05 03:42:50;;;;;;;5.20;2.30;;;14.50;99.90;;;;;;5051992;28;20963;-73
2024/04/05 03:45:17;;;;;;;5.27;2.00;;;14.50;99.90;;;;;;5051191;28;20470;-72
2024/04/05 03:47:44;;;;;;;12.90;2.77;;;14.60;99.90;;;;;;5051547;28;20463;-74
2024/04/05 03:50:10;;;;;;;5.23;2.57;;;14.60;99.90;;;;;;5051239;28;20487;-74
2024/04/05 03:52:37;;;;;;;6.80;3.17;;;14.60;99.90;;;;;;5051657;28;20940;-74
2024/04/05 03:55:04;;;;;;;5.27;3.10;;;14.60;99.90;;;;;;5055424;28;20463;-74
2024/04/05 03:57:32;;;;;;;5.37;3.23;;;14.60;99.90;;;;;;5055072;28;20834;-74
2024/04/05 03:59:59;;;;;;;4.33;2.20;;;14.60;99.90;;;;;;5055251;28;20550;-74
2024/04/05 04:02:26;;;;;;;3.77;1.93;;;14.70;99.90;;;;;;5054973;28;20975;-74
2024/04/05 04:04:52;;;;;;;3.90;2.30;;;14.60;99.90;;;;;;5055382;28;20463;-74
2024/04/05 04:07:19;;;;;;;4.97;2.23;;;14.70;99.90;;;;;;5054563;28;20546;-74
2024/04/05 04:09:46;;;;;;;5.10;2.53;;;14.70;99.90;;;;;;5055332;28;20470;-74
2024/04/05 04:12:13;;;;;;;7.70;1.93;;;14.60;99.90;;;;;;5054846;28;20542;-74
2024/04/05 04:14:40;;;;;;;4.90;2.53;;;14.70;99.90;;;;;;5055108;28;20929;-74
2024/04/05 04:17:08;;;;;;;5.40;2.07;;;14.60;99.90;;;;;;5055155;28;20482;-74
2024/04/05 04:19:34;;;;;;;6.87;2.70;;;14.60;99.90;;;;;;5054677;28;20471;-74
2024/04/05 04:22:02;;;;;;;2.57;2.00;;;14.60;99.90;;;;;;5055171;28;20965;-74
2024/04/05 04:24:29;;;;;;;4.93;2.10;;;14.60;99.90;;;;;;5054543;28;20467;-75
2024/04/05 04:26:56;;;;;;;6.30;2.63;;;14.50;99.90;;;;;;5054678;28;20477;-73
2024/04/05 04:29:23;;;;;;;5.37;1.97;;;14.50;99.90;;;;;;5054276;28;20498;-74
2024/04/05 04:31:50;;;;;;;3.63;1.90;;;14.50;99.90;;;;;;5054709;28;20485;-73
2024/04/05 04:34:18;;;;;;;2.33;1.90;;;14.50;99.90;;;;;;5054327;28;20462;-75
2024/04/05 04:36:45;;;;;;;6.50;2.70;;;14.40;99.90;;;;;;5054656;28;20782;-75
2024/04/05 04:39:10;;;;;;;6.37;1.80;;;14.40;99.90;;;;;;5054617;28;20525;-74
2024/04/05 04:41:45;;;;;;;6.03;2.17;;;14.30;99.90;;;;;;5053498;28;20467;-74
2024/04/05 04:44:11;;;;;;;5.40;2.20;;;14.30;99.90;;;;;;5054564;28;20466;-74
2024/04/05 04:46:38;;;;;;;4.73;2.43;;;14.30;99.90;;;;;;5054411;28;20529;-73
2024/04/05 04:49:04;;;;;;;3.53;1.97;;;14.20;99.90;;;;;;5054495;28;20467;-74
2024/04/05 04:51:32;;;;;;;3.50;1.83;;;14.20;99.90;;;;;;5054186;28;20467;-73
2024/04/05 04:53:59;;;;;;;2.50;1.57;;;14.30;99.90;;;;;;5054770;28;20483;-73
2024/04/05 04:56:30;;;;;;;4.20;1.70;;;14.30;99.90;;;;;;5053649;28;20538;-74
2024/04/05 04:58:56;;;;;;;3.53;2.03;;;14.30;99.90;;;;;;5054158;28;20467;-74
2024/04/05 05:01:23;;;;;;;4.80;3.30;;;14.30;99.90;;;;;;5053827;28;21001;-73
2024/04/05 05:03:49;;;;;;;4.63;3.13;;;14.30;99.90;;;;;;5054126;28;20455;-74
2024/04/05 05:06:18;;;;;;;4.27;3.87;;;14.30;99.90;;;;;;5053479;28;20998;-73
2024/04/05 05:08:45;;;;;;;11.13;6.40;;;14.30;99.90;;;;;;5053932;28;20471;-74
2024/04/05 05:11:12;;;;;;;4.47;2.37;;;14.30;99.90;;;;;;5053971;28;20467;-74
2024/04/05 05:13:38;;;;;;;4.63;2.70;;;14.30;99.90;;;;;;5053746;28;20901;-74
2024/04/05 05:16:05;;;;;;;5.77;2.83;;;14.20;99.90;;;;;;5054127;28;20473;-73
2024/04/05 05:18:34;;;;;;;4.90;2.20;;;14.20;99.90;;;;;;5053301;28;20536;-73
2024/04/05 05:21:01;;;;;;;6.17;1.97;;;14.20;99.90;;;;;;5053986;28;20971;-74
2024/04/05 05:23:27;;;;;;;5.20;2.00;;;14.20;99.90;;;;;;5053302;28;20807;-73
2024/04/05 05:25:57;;;;;;;3.50;2.13;;;14.20;99.90;;;;;;5053869;28;20463;-74
2024/04/05 05:28:23;;;;;;;5.07;2.90;;;14.20;99.90;;;;;;5053162;28;21003;-74
2024/04/05 05:30:50;;;;;;;3.33;2.40;;;14.20;99.90;;;;;;5053794;28;20489;-74
2024/04/05 05:33:16;;;;;;;3.13;2.00;;;14.20;99.90;;;;;;5053335;28;20502;-74
2024/04/05 05:35:44;;;;;;;5.50;2.00;;;14.20;99.90;;;;;;5053203;28;20451;-73
2024/04/05 05:38:10;;;;;;;3.83;2.23;;;14.20;99.90;;;;;;5053561;28;20467;-74
2024/04/05 05:40:37;;;;;;;5.80;2.30;;;14.30;99.90;;;;;;5052931;28;20546;-73
2024/04/05 05:43:04;;;;;;;6.70;2.47;;;14.30;99.90;;;;;;5053611;28;20968;-74
2024/04/05 05:45:31;;;;;;;6.63;2.90;;;14.30;99.90;;;;;;5052905;28;20471;-73
2024/04/05 05:47:57;;;;;;;5.20;2.10;;;14.30;99.90;;;;;;5053134;28;20463;-74
2024/04/05 05:50:25;;;;;;;5.20;2.90;;;14.30;99.90;;;;;;5053116;28;20481;-74
2024/04/05 05:52:52;;;;;;;4.37;2.20;;;14.40;99.90;;;;;;5053372;28;20467;-73
2024/04/05 05:55:22;;;;;;;6.27;1.87;;;14.40;99.90;;;;;;5053109;28;20463;-73
2024/04/05 05:57:48;;;;;;;6.80;2.17;;;14.40;99.90;;;;;;5053152;28;20482;-73
2024/04/05 06:00:17;;;;;;;6.90;3.77;;;14.30;99.90;;;;;;5052860;28;20959;-73
2024/04/05 06:02:43;;;;;;;5.97;2.73;;;14.40;99.90;;;;;;5052598;28;20490;-73
2024/04/05 06:05:12;;;;;;;8.87;2.80;;;14.40;99.90;;;;;;5053209;28;20463;-73
2024/04/05 06:07:41;;;;;;;4.77;3.13;;;14.40;99.90;;;;;;5052157;28;20479;-73
2024/04/05 06:10:08;;;;;;;5.83;2.97;;;14.50;99.90;;;;;;5052944;28;20463;-74
2024/04/05 06:12:38;;;;;;;4.10;3.20;;;14.60;99.90;;;;;;5052425;28;20550;-74
2024/04/05 06:15:06;;;;;;;7.23;3.03;;;14.60;99.90;;;;;;5052857;28;20460;-74
2024/04/05 06:17:35;;;;;;;3.80;3.03;;;14.70;99.90;;;;;;5051845;28;20464;-74
2024/04/05 06:20:05;;;;;;;13.47;9.73;;;14.70;99.90;;;;;;5053029;28;20463;-74
2024/04/05 06:22:32;;;;;;;10.47;5.17;;;14.80;99.90;;;;;;5052107;28;20502;-73
2024/04/05 06:24:59;;;;;;;5.40;2.20;;;14.90;99.90;;;;;;5052611;28;20474;-73
2024/04/05 06:27:24;;;;;;;7.53;2.60;;;14.90;99.90;;;;;;5052759;28;20471;-73
2024/04/05 06:29:53;;;;;;;7.63;2.47;;;14.90;99.90;;;;;;5055855;28;20782;-73
2024/04/05 06:32:19;;;;;;;5.73;2.70;;;15.00;99.90;;;;;;5056838;28;20474;-73
2024/04/05 06:34:48;;;;;;;3.97;2.67;;;15.10;99.90;;;;;;5052240;28;20538;-73
2024/04/05 06:37:14;;;;;;;6.73;3.47;;;15.10;99.90;;;;;;5052539;28;20479;-74
2024/04/05 06:39:41;;;;;;;10.97;4.50;;;15.20;99.90;;;;;;5052263;28;20487;-74
2024/04/05 06:42:07;;;;;;;7.93;3.67;;;15.30;99.90;;;;;;5052279;28;20513;-73
2024/04/05 06:44:36;;;;;;;9.33;4.97;;;15.30;99.90;;;;;;5051825;28;20467;-73
2024/04/05 06:47:04;;;;;;;6.03;3.07;;;15.40;99.90;;;;;;5052253;28;20470;-73
2024/04/05 06:49:32;;;;;;;8.10;4.70;;;15.40;99.90;;;;;;5051769;28;20466;-73
2024/04/05 06:52:00;;;;;;;9.30;5.27;;;15.50;99.90;;;;;;5052323;28;20485;-73
2024/04/05 06:54:28;;;;;;;7.77;6.00;;;15.60;99.90;;;;;;5052269;28;20471;-73
2024/04/05 06:56:53;;;;;;;9.60;4.67;;;15.70;99.90;;;;;;5051836;28;20805;-73
2024/04/05 06:59:20;;;;;;;7.10;3.97;;;15.70;99.90;;;;;;5051978;28;20467;-73
2024/04/05 07:01:46;;;;;;;5.70;4.50;;;15.80;99.90;;;;;;5051723;28;20467;-73
2024/04/05 07:04:13;;;;;;;7.10;4.50;;;15.90;99.90;;;;;;5052149;28;20469;-73
2024/04/05 07:06:39;;;;;;;5.60;2.73;;;16.00;99.90;;;;;;5051683;28;20501;-73
2024/04/05 07:09:08;;;;;;;7.00;3.20;;;16.00;99.90;;;;;;5052132;28;20479;-73
2024/04/05 07:11:35;;;;;;;7.20;3.20;;;16.00;99.90;;;;;;5051459;28;20467;-74
2024/04/05 07:14:03;;;;;;;9.80;6.13;;;16.00;99.90;;;;;;5051828;28;20467;-74
2024/04/05 07:16:29;;;;;;;7.93;4.70;;;16.10;99.90;;;;;;5052108;28;20467;-73
2024/04/05 07:18:56;;;;;;;7.77;3.20;;;16.20;99.90;;;;;;5051519;28;20532;-73
2024/04/05 07:21:22;;;;;;;9.60;4.10;;;16.30;99.90;;;;;;5052089;28;20481;-73
2024/04/05 07:23:51;;;;;;;5.63;3.40;;;16.30;99.90;;;;;;5051640;28;20467;-74
2024/04/05 07:26:18;;;;;;;9.07;2.87;;;16.40;99.90;;;;;;5051895;28;20569;-73
2024/04/05 07:28:45;;;;;;;12.60;5.37;;;16.50;99.90;;;;;;5052971;28;20467;-73
2024/04/05 07:31:11;;;;;;;6.60;4.33;;;16.50;99.90;;;;;;5056217;28;20551;-73
2024/04/05 07:33:41;;;;;;;7.60;3.70;;;16.60;99.90;;;;;;5055483;28;20470;-74
2024/04/05 07:36:08;;;;;;;9.97;5.20;;;16.70;99.90;;;;;;5056037;28;20474;-74
2024/04/05 07:38:35;;;;;;;6.70;4.80;;;16.80;99.90;;;;;;5055394;28;20809;-74
2024/04/05 07:41:04;;;;;;;11.93;4.20;;;16.80;99.90;;;;;;5055855;28;20459;-74
2024/04/05 07:43:33;;;;;;;10.97;5.73;;;16.90;99.90;;;;;;5055762;28;20517;-74
2024/04/05 07:45:59;;;;;;;11.43;3.90;;;16.90;99.90;;;;;;5055412;28;20459;-73
2024/04/05 07:48:26;;;;;;;6.00;3.20;;;17.00;99.90;;;;;;5055527;28;20533;-75
2024/04/05 07:50:53;;;;;;;13.00;9.33;;;17.00;99.90;;;;;;5055069;28;20471;-75
2024/04/05 07:53:20;;;;;;;11.30;4.40;;;17.00;99.90;;;;;;5055419;28;20466;-74
2024/04/05 07:55:46;;;;;;;6.70;4.07;;;17.10;99.90;;;;;;5055094;28;20481;-73
2024/04/05 07:58:13;;;;;;;8.87;4.13;;;17.10;99.90;;;;;;5055238;28;21026;-74
2024/04/05 08:00:40;;;;;;;8.00;4.33;;;17.10;99.90;;;;;;5054838;28;20475;-74
2024/04/05 08:03:07;;;;;;;11.77;4.50;;;17.20;99.90;;;;;;5055262;28;20470;-73
2024/04/05 08:05:35;;;;;;;7.20;3.77;;;17.20;99.90;;;;;;5055350;28;20463;-73
2024/04/05 08:08:02;;;;;;;13.00;8.77;;;17.30;99.90;;;;;;5054528;28;20470;-74
2024/04/05 08:10:30;;;;;;;10.90;5.80;;;17.40;99.90;;;;;;5055351;28;20474;-74
2024/04/05 08:12:58;;;;;;;14.30;9.80;;;17.40;99.90;;;;;;5054713;28;20851;-74
2024/04/05 08:15:24;;;;;;;9.73;5.80;;;17.50;99.90;;;;;;5055067;28;20475;-73
2024/04/05 08:17:55;;;;;;;11.13;4.70;;;17.60;99.90;;;;;;5054911;28;20540;-73
2024/04/05 08:20:21;;;;;;;5.57;3.80;;;17.60;99.90;;;;;;5055369;28;20577;-74
2024/04/05 08:22:48;;;;;;;7.73;3.50;;;17.70;99.90;;;;;;5054472;28;20983;-74
2024/04/05 08:25:14;;;;;;;11.10;4.73;;;17.70;99.90;;;;;;5054936;28;20473;-74
2024/04/05 08:27:44;;;;;;;10.93;3.67;;;17.80;99.90;;;;;;5054616;28;20486;-74
2024/04/05 08:30:12;;;;;;;11.03;4.00;;;17.90;99.90;;;;;;5054991;28;20824;-74
2024/04/05 08:32:41;;;;;;;8.87;3.77;;;17.90;99.90;;;;;;5055019;28;20481;-74
2024/04/05 08:35:09;;;;;;;12.57;7.67;;;17.90;99.90;;;;;;5054515;28;21006;-73
2024/04/05 08:37:36;;;;;;;9.13;3.77;;;17.90;99.90;;;;;;5054551;28;20558;-74
2024/04/05 08:40:03;;;;;;;8.50;3.10;;;17.90;99.90;;;;;;5053921;28;20472;-73
2024/04/05 08:42:34;;;;;;;7.53;3.87;;;17.90;99.90;;;;;;5055012;28;20466;-73
2024/04/05 08:45:01;;;;;;;7.90;3.07;;;17.90;99.90;;;;;;5054342;28;20491;-74
2024/04/05 08:47:29;;;;;;;10.10;4.90;;;17.90;99.90;;;;;;5054487;28;20992;-74
2024/04/05 08:49:56;;;;;;;7.87;3.87;;;17.90;99.90;;;;;;5054193;28;20467;-73
2024/04/05 08:52:25;;;;;;;8.50;3.20;;;17.90;99.90;;;;;;5054523;28;20779;-73
2024/04/05 08:54:52;;;;;;;11.57;3.80;;;17.80;99.90;;;;;;5051673;28;20483;-73
2024/04/05 08:57:21;;;;;;;9.30;3.70;;;17.80;99.90;;;;;;5054444;28;20556;-73
2024/04/05 08:59:49;;;;;;;12.93;6.70;;;17.80;99.90;;;;;;5054109;28;20810;-73
2024/04/05 09:02:20;;;;;;;12.97;6.70;;;17.90;99.90;;;;;;5054251;28;20498;-73
2024/04/05 09:04:46;;;;;;;11.43;5.70;;;17.90;99.90;;;;;;5054060;28;20468;-73
2024/04/05 09:07:13;;;;;;;7.93;3.10;;;17.90;99.90;;;;;;5054073;28;20505;-73
2024/04/05 09:09:46;;;;;;;9.37;4.27;;;17.90;99.90;;;;;;5054220;28;20475;-73
2024/04/05 09:12:15;;;;;;;9.53;2.90;;;17.90;99.90;;;;;;5053104;28;20926;-73
2024/04/05 09:14:41;;;;;;;10.27;3.53;;;18.00;99.90;;;;;;5053173;28;20491;-73
2024/04/05 09:17:14;;;;;;;9.13;2.90;;;18.00;99.90;;;;;;5052656;28;20906;-73
2024/04/05 09:19:42;;;;;;;7.50;4.73;;;18.10;99.90;;;;;;5052862;28;20976;-74
2024/04/05 09:22:19;;;;;;;13.97;7.23;;;18.20;99.90;;;;;;5052511;28;20467;-73
2024/04/05 09:24:46;;;;;;;9.73;6.63;;;18.20;99.90;;;;;;5053033;28;20810;-72
2024/04/05 09:27:19;;;;;;;5.03;2.80;;;18.30;99.90;;;;;;5052349;28;20506;-73
2024/04/05 09:29:47;;;;;;;7.90;3.30;;;18.40;99.90;;;;;;5052819;28;20485;-73
2024/04/05 09:32:19;;;;;;;5.80;3.10;;;18.40;99.90;;;;;;5052784;28;20459;-73
2024/04/05 09:34:47;;;;;;;10.73;3.63;;;18.40;99.90;;;;;;5052549;28;20467;-72
2024/04/05 09:37:14;;;;;;;7.30;2.83;;;18.40;99.90;;;;;;5052515;28;20487;-72
2024/04/05 09:39:41;;;;;;;7.60;5.10;;;18.40;99.90;;;;;;5052893;28;20467;-73
2024/04/05 09:42:12;;;;;;;9.37;3.10;;;18.40;99.90;;;;;;5053048;28;20459;-73
2024/04/05 09:44:40;;;;;;;5.70;3.13;;;18.40;99.90;;;;;;5053668;28;20818;-73
2024/04/05 09:47:08;;;;;;;5.93;2.80;;;18.50;99.90;;;;;;5052878;28;20467;-72
2024/04/05 09:49:34;;;;;;;10.43;3.50;;;18.50;99.90;;;;;;5053662;28;20820;-73
2024/04/05 09:52:09;;;;;;;5.97;2.70;;;18.50;99.90;;;;;;5052506;28;20475;-73
2024/04/05 09:54:44;;;;;;;6.40;2.67;;;18.50;99.90;;;;;;5053324;28;20972;-73
2024/04/05 09:57:13;;;;;;;12.47;4.00;;;18.50;99.90;;;;;;5052742;28;20490;-73
2024/04/05 09:59:43;;;;;;;11.37;3.33;;;18.40;99.90;;;;;;5053311;28;20471;-73
2024/04/05 10:02:10;;;;;;;4.10;2.60;;;18.40;99.90;;;;;;5052875;28;20470;-73
2024/04/05 10:04:38;;;;;;;5.00;2.80;;;18.30;99.90;;;;;;5053235;28;20463;-73
2024/04/05 10:07:09;;;;;;;7.23;2.97;;;18.40;99.90;;;;;;5052535;28;20483;-73
2024/04/05 10:09:37;;;;;;;6.30;3.13;;;18.40;99.90;;;;;;5052942;28;20529;-73
2024/04/05 10:12:12;;;;;;;7.80;4.60;;;18.40;99.90;;;;;;5052455;28;20481;-74
2024/04/05 10:14:39;;;;;;;12.00;3.77;;;18.50;99.90;;;;;;5052946;28;20477;-73
2024/04/05 10:17:06;;;;;;;6.70;4.00;;;18.50;99.90;;;;;;5052583;28;20497;-74
2024/04/05 10:19:36;;;;;;;6.70;4.53;;;18.60;99.90;;;;;;5052956;28;20464;-74
2024/04/05 10:22:06;;;;;;;5.80;3.30;;;18.70;99.90;;;;;;5052636;28;20471;-74
2024/04/05 10:24:33;;;;;;;4.70;2.90;;;18.80;99.90;;;;;;5052983;28;20465;-73
2024/04/05 10:26:59;;;;;;;4.80;2.90;;;18.80;99.90;;;;;;5052425;28;20471;-72
2024/04/05 10:29:29;;;;;;;5.77;2.63;;;18.90;99.90;;;;;;5052597;28;20467;-74
2024/04/05 10:32:03;;;;;;;3.87;2.60;;;19.00;99.90;;;;;;5052344;28;20960;-74
2024/04/05 10:34:31;;;;;;;5.57;3.83;;;19.00;99.90;;;;;;5052525;28;20467;-74
2024/04/05 10:36:57;;;;;;;7.40;3.70;;;19.10;99.90;;;;;;5051888;28;20487;-74
2024/04/05 10:39:24;;;;;;;8.43;3.20;;;19.00;99.90;;;;;;5052707;28;20463;-73
2024/04/05 10:41:50;;;;;;;5.37;2.90;;;19.00;99.90;;;;;;5052514;28;20478;-73
2024/04/05 10:44:18;;;;;;;7.00;3.63;;;19.10;99.90;;;;;;5051936;28;20829;-73
2024/04/05 10:46:48;;;;;;;6.47;4.57;;;19.10;99.90;;;;;;5052551;28;20830;-74
2024/04/05 10:49:15;;;;;;;11.13;6.70;;;19.20;99.90;;;;;;5051807;28;20467;-73
2024/04/05 10:51:41;;;;;;;8.20;7.07;;;19.20;99.90;;;;;;5052568;28;20486;-73
2024/04/05 10:54:10;;;;;;;6.90;3.20;;;19.20;99.90;;;;;;5051998;28;20463;-73
2024/04/05 10:56:39;;;;;;;5.40;2.80;;;19.30;99.90;;;;;;5052282;28;20466;-74
2024/04/05 10:59:08;;;;;;;6.43;3.23;;;19.30;99.90;;;;;;5051762;28;20462;-74
2024/04/05 11:01:35;;;;;;;8.00;2.97;;;19.30;99.90;;;;;;5052439;28;20517;-74
2024/04/05 11:04:05;;;;;;;6.77;3.40;;;19.40;99.90;;;;;;5051464;28;21035;-74
2024/04/05 11:06:31;;;;;;;10.23;4.97;;;19.40;99.90;;;;;;5051840;28;20479;-74
2024/04/05 11:08:59;;;;;;;6.70;3.63;;;19.50;99.90;;;;;;5051978;28;20479;-74
2024/04/05 11:11:26;;;;;;;9.60;7.23;;;19.50;99.90;;;;;;5052046;28;20544;-73
2024/04/05 11:14:02;;;;;;;9.13;4.10;;;19.50;99.90;;;;;;5052073;28;20477;-73
2024/04/05 11:16:29;;;;;;;8.90;3.57;;;19.60;99.90;;;;;;5051827;28;20992;-74
2024/04/05 11:18:56;;;;;;;3.93;2.37;;;19.60;99.90;;;;;;5052006;28;20801;-73
2024/04/05 11:21:23;;;;;;;4.23;2.90;;;19.70;99.90;;;;;;5051964;28;20475;-73
2024/04/05 11:23:51;;;;;;;3.60;2.07;;;19.70;99.90;;;;;;5052585;28;20835;-72
2024/04/05 11:26:30;;;;;;;5.10;2.40;;;19.80;99.90;;;;;;5051532;28;20468;-74
2024/04/05 11:29:00;;;;;;;6.17;2.47;;;19.80;99.90;;;;;;5052067;28;20867;-73
2024/04/05 11:31:27;;;;;;;16.43;3.30;;;19.90;99.90;;;;;;5051536;28;20546;-73
2024/04/05 11:33:54;;;;;;;5.30;2.73;;;19.90;99.90;;;;;;5052157;28;21062;-74
2024/04/05 11:36:20;;;;;;;4.50;2.33;;;19.90;99.90;;;;;;5051472;28;20497;-73
2024/04/05 11:38:49;;;;;;;4.70;2.97;;;19.90;99.90;;;;;;5052039;28;20867;-73
2024/04/05 11:41:15;;;;;;;7.50;2.80;;;19.90;99.90;;;;;;5051470;28;20474;-73
2024/04/05 11:43:44;;;;;;;4.77;3.00;;;19.90;99.90;;;;;;5051848;28;20486;-73
2024/04/05 11:46:11;;;;;;;5.70;2.27;;;19.90;99.90;;;;;;5051300;28;20495;-73
2024/04/05 11:48:37;;;;;;;8.20;2.57;;;19.90;99.90;;;;;;5051981;28;20467;-73
2024/04/05 11:51:05;;;;;;;5.33;2.27;;;19.80;99.90;;;;;;5051612;28;20486;-73
2024/04/05 11:53:31;;;;;;;3.10;1.80;;;19.80;99.90;;;;;;5051484;28;20467;-73
2024/04/05 11:55:59;;;;;;;4.93;2.33;;;19.80;99.90;;;;;;5051787;28;20547;-73
2024/04/05 11:58:25;;;;;;;3.60;2.10;;;19.80;99.90;;;;;;5051265;28;20541;-73
2024/04/05 12:00:52;;;;;;;6.43;3.13;;;19.80;99.90;;;;;;5051873;28;20478;-74
2024/04/05 12:03:18;;;;;;;6.17;2.47;;;19.80;99.90;;;;;;5051299;28;20470;-73
2024/04/05 12:05:46;;;;;;;3.10;2.17;;;19.70;99.90;;;;;;5051515;28;20505;-73
2024/04/05 12:08:12;;;;;;;4.93;2.37;;;19.80;99.90;;;;;;5051015;28;20482;-74
2024/04/05 12:10:40;;;;;;;3.90;2.40;;;19.90;99.90;;;;;;5051540;28;20529;-73
2024/04/05 12:13:07;;;;;;;7.37;2.97;;;19.90;99.90;;;;;;5051579;28;20478;-74
2024/04/05 12:15:37;;;;;;;6.50;2.60;;;20.00;99.90;;;;;;5054145;28;20485;-74
2024/04/05 12:18:03;;;;;;;3.60;2.30;;;20.00;99.90;;;;;;5055188;28;20532;-74
2024/04/05 12:20:30;;;;;;;3.57;2.03;;;19.90;99.90;;;;;;5054589;28;20482;-74
2024/04/05 12:22:56;;;;;;;2.43;2.00;;;20.00;99.90;;;;;;5055075;28;20477;-74
2024/04/05 12:25:23;;;;;;;5.63;2.70;;;20.00;99.90;;;;;;5054634;28;20471;-74
2024/04/05 12:27:50;;;;;;;6.87;2.90;;;20.00;99.90;;;;;;5054937;28;20487;-74
2024/04/05 12:30:19;;;;;;;5.20;3.03;;;20.00;99.90;;;;;;5054380;28;20851;-73
2024/04/05 12:32:46;;;;;;;7.07;3.27;;;20.00;99.90;;;;;;5055009;28;20503;-73
2024/04/05 12:35:13;;;;;;;3.83;2.27;;;20.10;99.90;;;;;;5054515;28;20538;-74
2024/04/05 12:37:39;;;;;;;4.27;2.70;;;20.10;99.90;;;;;;5054627;28;20470;-74
2024/04/05 12:40:15;;;;;;;5.87;2.50;;;20.10;99.90;;;;;;5054627;28;20473;-74
2024/04/05 12:42:41;;;;;;;6.53;3.00;;;20.10;99.90;;;;;;5054216;28;20467;-74
2024/04/05 12:45:09;;;;;;;8.00;4.63;;;20.10;99.90;;;;;;5054664;28;20467;-74
2024/04/05 12:47:36;;;;;;;9.80;3.07;;;20.10;99.90;;;;;;5053987;28;20556;-74